createdAt,value
2019-02-26T00:01:57.424Z,25.40
2019-02-26T00:04:27.170Z,27.60
2019-02-26T00:06:55.791Z,26.30
2019-02-26T00:09:27.416Z,28.20
2019-02-26T00:11:56.476Z,27.00
2019-02-26T00:14:27.538Z,27.00
2019-02-26T00:16:56.084Z,27.20
2019-02-26T00:19:26.348Z,27.30
2019-02-26T00:21:55.740Z,27.20
2019-02-26T00:24:26.148Z,26.90
2019-02-26T00:26:55.527Z,27.60
2019-02-26T00:29:26.006Z,28.60
2019-02-26T00:31:57.550Z,28.50
2019-02-26T00:34:25.794Z,30.30
2019-02-26T00:36:57.267Z,28.80
2019-02-26T00:39:27.079Z,28.80
2019-02-26T00:41:58.121Z,29.60
2019-02-26T00:44:27.443Z,29.60
2019-02-26T00:46:57.584Z,28.60
2019-02-26T00:49:28.493Z,29.40
2019-02-26T00:51:57.099Z,31.60
2019-02-26T00:54:26.765Z,30.20
2019-02-26T00:56:59.055Z,31.10
2019-02-26T00:59:26.157Z,30.00
2019-02-26T01:01:56.999Z,30.70
2019-02-26T01:04:26.417Z,30.60
2019-02-26T01:06:57.323Z,30.60
2019-02-26T01:09:27.284Z,30.60
2019-02-26T01:11:56.890Z,30.50
2019-02-26T01:14:26.426Z,33.10
2019-02-26T01:16:55.994Z,34.60
2019-02-26T01:19:25.780Z,34.90
2019-02-26T01:21:55.267Z,35.30
2019-02-26T01:24:25.941Z,35.80
2019-02-26T01:26:55.366Z,34.70
2019-02-26T01:29:25.906Z,34.70
2019-02-26T01:31:54.752Z,36.10
2019-02-26T01:34:24.993Z,38.40
2019-02-26T01:36:55.001Z,38.00
2019-02-26T01:39:24.662Z,38.00
2019-02-26T01:41:56.265Z,39.00
2019-02-26T01:44:28.062Z,39.60
2019-02-26T01:46:55.645Z,37.70
2019-02-26T01:49:26.641Z,38.70
2019-02-26T01:51:54.628Z,33.70
2019-02-26T01:54:24.029Z,36.00
2019-02-26T01:56:53.527Z,37.40
2019-02-26T01:59:22.845Z,39.20
2019-02-26T02:01:53.773Z,40.60
2019-02-26T02:04:22.959Z,41.70
2019-02-26T02:06:54.325Z,42.60
2019-02-26T02:09:23.208Z,43.30
2019-02-26T02:11:52.375Z,43.70
2019-02-26T02:14:21.548Z,43.00
2019-02-26T02:16:51.430Z,44.60
2019-02-26T02:19:22.741Z,45.50
2019-02-26T02:21:51.510Z,45.10
2019-02-26T02:24:22.267Z,44.30
2019-02-26T02:26:52.679Z,44.50
2019-02-26T02:29:21.746Z,45.80
2019-02-26T02:31:52.173Z,46.70
2019-02-26T02:34:20.337Z,45.60
2019-02-26T02:36:50.119Z,46.00
2019-02-26T02:39:20.865Z,46.70
2019-02-26T02:41:51.662Z,47.60
2019-02-26T02:44:20.564Z,47.10
2019-02-26T02:46:50.439Z,47.50
2019-02-26T02:49:20.678Z,48.60
2019-02-26T02:51:50.443Z,48.50
2019-02-26T02:54:21.033Z,49.10
2019-02-26T02:56:49.644Z,49.90
2019-02-26T02:59:34.054Z,50.40
2019-02-26T03:02:02.338Z,49.40
2019-02-26T03:04:34.716Z,50.40
2019-02-26T03:07:03.083Z,51.40
2019-02-26T03:09:37.672Z,51.10
2019-02-26T03:12:04.715Z,51.00
2019-02-26T03:14:35.907Z,50.70
2019-02-26T03:17:06.396Z,50.60
2019-02-26T03:19:35.673Z,51.20
2019-02-26T03:22:03.000Z,52.70
2019-02-26T03:24:33.884Z,53.30
2019-02-26T03:27:03.363Z,53.20
2019-02-26T03:29:33.076Z,53.10
2019-02-26T03:32:02.536Z,55.90
2019-02-26T03:34:32.095Z,53.90
2019-02-26T03:37:03.239Z,53.80
2019-02-26T03:39:31.171Z,55.40
2019-02-26T03:42:01.297Z,55.60
2019-02-26T03:44:30.803Z,55.50
2019-02-26T03:47:00.523Z,56.00
2019-02-26T03:49:29.992Z,55.80
2019-02-26T03:52:00.320Z,56.50
2019-02-26T03:54:29.757Z,56.70
2019-02-26T03:56:59.184Z,55.80
2019-02-26T03:59:28.881Z,54.90
2019-02-26T04:01:58.589Z,56.20
2019-02-26T04:04:30.470Z,56.60
2019-02-26T04:06:58.576Z,56.90
2019-02-26T04:09:27.449Z,57.80
2019-02-26T04:11:56.549Z,59.90
2019-02-26T04:14:28.271Z,60.70
2019-02-26T04:16:58.057Z,58.20
2019-02-26T04:19:26.885Z,59.70
2019-02-26T04:22:07.426Z,61.00
2019-02-26T04:24:38.094Z,62.60
2019-02-26T04:27:36.307Z,63.30
2019-02-26T04:33:11.556Z,64.10
2019-02-26T04:35:42.335Z,65.30
2019-02-26T04:38:18.106Z,65.30
2019-02-26T04:40:50.526Z,65.80
2019-02-26T04:43:36.020Z,64.40
2019-02-26T04:46:21.301Z,64.40
2019-02-26T04:48:51.208Z,65.50
2019-02-26T04:51:20.987Z,66.80
2019-02-26T04:53:51.789Z,66.80
2019-02-26T04:56:20.510Z,67.90
2019-02-26T04:58:50.281Z,70.30
2019-02-26T05:01:19.804Z,75.40
2019-02-26T05:03:49.374Z,71.90
2019-02-26T05:06:19.002Z,69.70
2019-02-26T05:08:48.735Z,71.10
2019-02-26T05:11:31.151Z,70.40
2019-02-26T05:13:48.547Z,71.40
2019-02-26T05:16:19.414Z,71.20
2019-02-26T05:18:49.621Z,72.20
2019-02-26T05:21:20.103Z,82.90
2019-02-26T05:23:52.308Z,82.90
2019-02-26T05:26:20.823Z,84.90
2019-02-26T05:28:51.566Z,87.50
2019-02-26T05:31:19.986Z,87.80
2019-02-26T05:33:51.587Z,89.60
2019-02-26T05:36:20.933Z,87.70
2019-02-26T05:38:54.049Z,87.70
2019-02-26T05:41:20.465Z,85.40
2019-02-26T05:43:55.314Z,86.50
2019-02-26T05:46:21.654Z,85.70
2019-02-26T05:48:51.189Z,85.50
2019-02-26T05:51:24.414Z,86.50
2019-02-26T05:53:53.257Z,86.00
2019-02-26T05:56:23.001Z,85.90
2019-02-26T05:58:52.438Z,86.70
2019-02-26T06:01:24.249Z,88.30
2019-02-26T06:03:53.189Z,85.30
2019-02-26T06:06:23.073Z,86.70
2019-02-26T06:08:55.278Z,90.40
2019-02-26T06:11:23.028Z,92.40
2019-02-26T06:13:55.534Z,93.40
2019-02-26T06:16:24.461Z,93.40
2019-02-26T06:18:54.441Z,92.20
2019-02-26T06:21:25.807Z,92.10
2019-02-26T06:23:54.132Z,91.60
2019-02-26T06:26:28.122Z,92.50
2019-02-26T06:28:55.407Z,91.10
2019-02-26T06:31:25.152Z,90.70
2019-02-26T06:33:55.818Z,91.10
2019-02-26T06:36:25.750Z,91.10
2019-02-26T06:38:56.441Z,92.20
2019-02-26T06:41:25.039Z,92.10
2019-02-26T06:43:55.080Z,94.40
2019-02-26T06:46:27.124Z,93.40
2019-02-26T06:48:54.807Z,93.60
2019-02-26T06:51:26.158Z,92.60
2019-02-26T06:53:56.524Z,91.70
2019-02-26T06:56:30.076Z,92.00
2019-02-26T06:59:00.674Z,91.40
2019-02-26T07:01:33.478Z,94.50
2019-02-26T07:04:03.104Z,94.50
2019-02-26T07:06:34.404Z,93.50
2019-02-26T07:09:03.220Z,93.10
2019-02-26T07:11:33.623Z,93.50
2019-02-26T07:14:05.109Z,93.30
2019-02-26T07:16:33.070Z,93.20
2019-02-26T07:19:03.900Z,93.20
2019-02-26T07:21:32.687Z,93.60
2019-02-26T07:24:03.502Z,94.00
2019-02-26T07:26:32.926Z,94.00
2019-02-26T07:29:03.463Z,93.80
2019-02-26T07:31:35.520Z,93.90
2019-02-26T07:34:04.534Z,93.80
2019-02-26T07:36:34.046Z,93.70
2019-02-26T07:39:05.262Z,94.80
2019-02-26T07:41:35.085Z,94.70
2019-02-26T07:44:08.695Z,96.50
2019-02-26T07:46:35.578Z,96.40
2019-02-26T07:49:04.869Z,96.90
2019-02-26T07:51:36.254Z,96.10
2019-02-26T07:54:04.150Z,96.20
2019-02-26T07:56:33.696Z,95.30
2019-02-26T07:59:06.797Z,95.80
2019-02-26T08:01:35.425Z,96.90
2019-02-26T08:04:03.987Z,96.80
2019-02-26T08:06:33.904Z,97.50
2019-02-26T08:09:04.778Z,98.40
2019-02-26T08:11:36.205Z,97.50
2019-02-26T08:14:04.636Z,96.90
2019-02-26T08:16:34.180Z,96.30
2019-02-26T08:19:04.496Z,95.80
2019-02-26T08:21:35.106Z,97.00
2019-02-26T08:24:04.614Z,97.00
2019-02-26T08:26:34.627Z,96.10
2019-02-26T08:29:05.734Z,97.10
2019-02-26T08:31:35.436Z,96.40
2019-02-26T08:34:05.057Z,96.30
2019-02-26T08:36:34.655Z,97.20
2019-02-26T08:39:04.678Z,96.60
2019-02-26T08:41:34.034Z,96.10
2019-02-26T08:44:03.575Z,96.30
2019-02-26T08:46:34.155Z,96.70
2019-02-26T08:49:08.290Z,96.70
2019-02-26T08:51:35.238Z,95.50
2019-02-26T08:54:04.794Z,95.50
2019-02-26T08:56:36.264Z,94.60
2019-02-26T08:59:04.091Z,94.70
2019-02-26T09:01:33.713Z,94.60
2019-02-26T09:04:03.415Z,91.70
2019-02-26T09:06:33.001Z,92.50
2019-02-26T09:09:04.570Z,91.30
2019-02-26T09:11:33.906Z,92.10
2019-02-26T09:14:04.335Z,91.10
2019-02-26T09:16:32.808Z,85.60
2019-02-26T09:19:02.457Z,85.50
2019-02-26T09:21:32.027Z,86.80
2019-02-26T09:24:02.615Z,89.10
2019-02-26T09:26:31.725Z,86.60
2019-02-26T09:29:01.380Z,86.20
2019-02-26T09:31:31.031Z,82.50
2019-02-26T09:34:00.963Z,80.10
2019-02-26T09:36:30.544Z,80.30
2019-02-26T09:39:00.159Z,77.70
2019-02-26T09:41:30.609Z,77.20
2019-02-26T09:44:01.884Z,77.00
2019-02-26T09:46:31.710Z,75.30
2019-02-26T09:49:00.972Z,77.40
2019-02-26T09:51:30.601Z,72.50
2019-02-26T09:54:01.090Z,73.60
2019-02-26T09:56:30.678Z,73.50
2019-02-26T09:59:02.297Z,72.90
2019-02-26T10:01:31.412Z,73.90
2019-02-26T10:04:01.309Z,74.60
2019-02-26T10:06:30.017Z,78.00
2019-02-26T10:08:59.757Z,79.40
2019-02-26T10:11:29.203Z,81.00
2019-02-26T10:13:58.710Z,77.80
2019-02-26T10:16:28.712Z,81.50
2019-02-26T10:18:58.122Z,82.00
2019-02-26T10:21:27.923Z,79.20
2019-02-26T10:23:59.322Z,79.60
2019-02-26T10:26:28.669Z,77.40
2019-02-26T10:29:03.456Z,81.40
2019-02-26T10:31:27.681Z,82.20
2019-02-26T10:33:56.801Z,80.60
2019-02-26T10:36:30.379Z,77.00
2019-02-26T10:38:57.859Z,77.40
2019-02-26T10:41:26.309Z,77.20
2019-02-26T10:43:55.724Z,74.20
2019-02-26T10:46:25.263Z,75.50
2019-02-26T10:48:55.193Z,79.00
2019-02-26T10:51:27.044Z,77.00
2019-02-26T10:53:57.513Z,74.90
2019-02-26T10:56:28.124Z,56.50
2019-02-26T10:59:01.923Z,56.50
2019-02-26T11:01:28.116Z,56.80
2019-02-26T11:03:55.740Z,60.40
2019-02-26T11:06:25.139Z,58.80
2019-02-26T11:08:55.743Z,57.10
2019-02-26T11:11:25.717Z,56.40
2019-02-26T11:13:55.238Z,56.30
2019-02-26T11:16:28.045Z,57.40
2019-02-26T11:18:55.720Z,56.20
2019-02-26T11:21:25.439Z,54.80
2019-02-26T11:23:58.295Z,53.70
2019-02-26T11:26:26.668Z,53.60
2019-02-26T11:28:56.065Z,53.30
2019-02-26T11:31:25.644Z,55.10
2019-02-26T11:33:57.301Z,53.80
2019-02-26T11:36:25.219Z,52.50
2019-02-26T11:38:55.009Z,54.00
2019-02-26T11:41:26.364Z,54.00
2019-02-26T11:43:55.033Z,53.10
2019-02-26T11:46:25.296Z,53.40
2019-02-26T11:48:55.470Z,55.40
2019-02-26T11:51:24.027Z,55.40
2019-02-26T11:53:53.420Z,55.40
2019-02-26T11:56:25.130Z,54.90
2019-02-26T11:58:52.661Z,54.90
2019-02-26T12:01:22.255Z,54.60
2019-02-26T12:03:55.883Z,54.20
2019-02-26T12:06:24.234Z,51.50
2019-02-26T12:08:54.741Z,51.70
2019-02-26T12:11:24.469Z,51.70
2019-02-26T12:13:54.326Z,53.00
2019-02-26T12:16:23.887Z,50.20
2019-02-26T12:18:53.611Z,50.60
2019-02-26T12:21:25.081Z,49.50
2019-02-26T12:23:53.371Z,50.50
2019-02-26T12:26:25.517Z,50.90
2019-02-26T12:28:54.806Z,51.10
2019-02-26T12:31:25.323Z,51.00
2019-02-26T12:33:54.072Z,49.00
2019-02-26T12:36:24.618Z,48.40
2019-02-26T12:38:53.729Z,50.40
2019-02-26T12:41:24.127Z,51.90
2019-02-26T12:43:54.446Z,50.10
2019-02-26T12:46:27.336Z,52.00
2019-02-26T12:48:54.886Z,51.90
2019-02-26T12:51:26.301Z,51.40
2019-02-26T12:53:54.283Z,52.40
2019-02-26T12:56:24.327Z,55.10
2019-02-26T12:58:54.547Z,55.50
2019-02-26T13:01:23.980Z,53.70
2019-02-26T13:03:54.968Z,54.90
2019-02-26T13:06:23.750Z,54.80
2019-02-26T13:08:56.986Z,54.40
2019-02-26T13:11:26.610Z,56.40
2019-02-26T13:13:56.166Z,56.50
2019-02-26T13:16:25.818Z,55.40
2019-02-26T13:18:58.616Z,56.90
2019-02-26T13:21:25.658Z,57.70
2019-02-26T13:23:58.532Z,59.00
2019-02-26T13:26:24.966Z,60.30
2019-02-26T13:28:56.095Z,64.70
2019-02-26T13:31:24.322Z,64.60
2019-02-26T13:33:53.769Z,69.30
2019-02-26T13:36:24.399Z,69.10
2019-02-26T13:38:54.101Z,69.10
2019-02-26T13:41:29.915Z,71.80
2019-02-26T13:43:53.791Z,67.80
2019-02-26T13:46:23.085Z,66.40
2019-02-26T13:48:52.794Z,63.50
2019-02-26T13:51:22.384Z,66.80
2019-02-26T13:53:53.615Z,65.90
2019-02-26T13:56:25.077Z,65.80
2019-02-26T13:58:54.933Z,66.50
2019-02-26T14:01:24.239Z,66.80
2019-02-26T14:03:53.794Z,66.50
2019-02-26T14:06:23.216Z,67.40
2019-02-26T14:08:53.113Z,65.40
2019-02-26T14:11:23.594Z,66.30
2019-02-26T14:13:53.301Z,66.30
2019-02-26T14:16:22.835Z,67.80
2019-02-26T14:18:52.259Z,67.10
2019-02-26T14:21:21.706Z,65.00
2019-02-26T14:23:51.652Z,66.10
2019-02-26T14:26:21.964Z,68.30
2019-02-26T14:28:51.511Z,67.60
2019-02-26T14:31:21.377Z,68.20
2019-02-26T14:33:50.972Z,68.10
2019-02-26T14:36:21.189Z,68.10
2019-02-26T14:38:50.807Z,68.20
2019-02-26T14:41:20.414Z,68.80
2019-02-26T14:43:50.166Z,66.70
2019-02-26T14:46:19.729Z,69.90
2019-02-26T14:48:49.020Z,70.40
2019-02-26T14:51:18.550Z,68.80
2019-02-26T14:53:49.272Z,70.20
2019-02-26T14:56:18.999Z,73.20
2019-02-26T14:58:48.700Z,75.10
2019-02-26T15:01:19.906Z,74.90
2019-02-26T15:03:49.669Z,72.50
2019-02-26T15:06:19.328Z,70.60
2019-02-26T15:08:48.903Z,74.70
2019-02-26T15:11:18.499Z,73.60
2019-02-26T15:13:50.287Z,71.50
2019-02-26T15:16:20.124Z,70.20
2019-02-26T15:18:49.747Z,70.60
2019-02-26T15:21:19.373Z,70.40
2019-02-26T15:23:50.307Z,69.90
2019-02-26T15:26:19.658Z,67.20
2019-02-26T15:28:49.685Z,66.20
2019-02-26T15:31:19.386Z,66.50
2019-02-26T15:33:49.823Z,63.70
2019-02-26T15:36:19.514Z,63.70
2019-02-26T15:38:49.351Z,63.00
2019-02-26T15:41:18.930Z,63.20
2019-02-26T15:43:48.702Z,62.70
2019-02-26T15:46:18.422Z,62.90
2019-02-26T15:49:08.264Z,64.20
2019-02-26T15:51:37.973Z,61.80
2019-02-26T15:54:08.580Z,57.90
2019-02-26T15:56:38.044Z,57.80
2019-02-26T15:59:07.958Z,57.20
2019-02-26T16:01:38.313Z,56.40
2019-02-26T16:04:07.864Z,54.50
2019-02-26T16:06:38.169Z,54.90
2019-02-26T16:09:07.893Z,54.70
2019-02-26T16:11:37.132Z,52.20
2019-02-26T16:14:06.949Z,52.60
2019-02-26T16:16:36.607Z,52.00
2019-02-26T16:19:06.177Z,50.50
2019-02-26T16:21:36.020Z,49.10
2019-02-26T16:24:06.193Z,49.90
2019-02-26T16:26:35.654Z,48.70
2019-02-26T16:29:05.153Z,47.30
2019-02-26T16:31:34.864Z,47.10
2019-02-26T16:34:04.572Z,46.10
2019-02-26T16:36:33.890Z,43.70
2019-02-26T16:39:03.957Z,38.50
2019-02-26T16:41:35.638Z,37.90
2019-02-26T16:44:03.428Z,34.50
2019-02-26T16:46:33.132Z,33.70
2019-02-26T16:49:03.658Z,32.90
2019-02-26T16:51:33.897Z,33.40
2019-02-26T16:54:04.724Z,31.40
2019-02-26T16:56:34.357Z,31.40
2019-02-26T16:59:07.423Z,28.90
2019-02-26T17:01:33.615Z,28.80
2019-02-26T17:04:05.549Z,26.30
2019-02-26T17:06:33.357Z,26.90
2019-02-26T17:09:04.407Z,21.30
2019-02-26T17:11:34.178Z,21.20
2019-02-26T17:14:03.637Z,21.90
2019-02-26T17:16:33.548Z,15.90
2019-02-26T17:19:03.576Z,16.00
2019-02-26T17:21:34.254Z,12.50
2019-02-26T17:24:03.841Z,11.90
2019-02-26T17:26:33.942Z,11.60
2019-02-26T17:29:03.448Z,11.10
2019-02-26T17:31:32.765Z,11.00
2019-02-26T17:34:02.430Z,9.80
2019-02-26T17:36:32.610Z,8.90
2019-02-26T17:39:01.905Z,9.10
2019-02-26T17:41:31.571Z,7.70
2019-02-26T17:44:02.210Z,8.00
2019-02-26T17:46:32.356Z,8.60
2019-02-26T17:49:02.837Z,8.00
2019-02-26T17:51:31.785Z,7.50
2019-02-26T17:54:03.960Z,7.20
2019-02-26T17:56:32.091Z,7.10
2019-02-26T17:59:01.853Z,6.30
2019-02-26T18:01:31.442Z,7.80
2019-02-26T18:04:01.106Z,7.10
2019-02-26T18:06:31.371Z,7.40
2019-02-26T18:09:00.936Z,6.60
2019-02-26T18:11:30.510Z,6.60
2019-02-26T18:14:01.012Z,7.10
2019-02-26T18:16:31.783Z,7.10
2019-02-26T18:19:01.861Z,7.00
2019-02-26T18:21:31.338Z,6.90
2019-02-26T18:24:00.902Z,8.00
2019-02-26T18:26:30.764Z,7.90
2019-02-26T18:29:00.285Z,8.10
2019-02-26T18:31:31.274Z,8.50
2019-02-26T18:33:59.899Z,8.40
2019-02-26T18:36:29.423Z,7.90
2019-02-26T18:38:59.056Z,7.90
2019-02-26T18:41:30.501Z,7.00
2019-02-26T18:43:59.541Z,7.00
2019-02-26T18:46:29.243Z,7.80
2019-02-26T18:48:59.275Z,8.20
2019-02-26T18:51:28.845Z,8.60
2019-02-26T18:53:59.166Z,9.40
2019-02-26T18:56:28.612Z,9.30
2019-02-26T18:58:59.107Z,8.30
2019-02-26T19:01:30.692Z,6.90
2019-02-26T19:03:58.711Z,7.80
2019-02-26T19:06:28.176Z,9.50
2019-02-26T19:08:58.143Z,10.30
2019-02-26T19:11:27.429Z,10.50
2019-02-26T19:13:57.274Z,9.50
2019-02-26T19:16:29.119Z,11.30
2019-02-26T19:18:58.719Z,11.20
2019-02-26T19:21:28.125Z,12.60
2019-02-26T19:23:57.600Z,13.40
2019-02-26T19:26:27.877Z,16.00
2019-02-26T19:28:59.045Z,14.20
2019-02-26T19:31:28.208Z,13.70
2019-02-26T19:33:57.694Z,14.60
2019-02-26T19:36:27.182Z,16.70
2019-02-26T19:39:00.478Z,14.90
2019-02-26T19:41:26.356Z,15.60
2019-02-26T19:43:57.593Z,15.90
2019-02-26T19:46:27.097Z,13.50
2019-02-26T19:48:55.728Z,11.90
2019-02-26T19:51:25.507Z,8.90
2019-02-26T19:53:55.446Z,8.20
2019-02-26T19:56:25.050Z,8.00
2019-02-26T19:58:54.952Z,8.70
2019-02-26T20:01:25.808Z,8.80
2019-02-26T20:03:54.422Z,8.70
2019-02-26T20:06:26.690Z,9.40
2019-02-26T20:08:53.945Z,10.00
2019-02-26T20:11:23.880Z,8.80
2019-02-26T20:13:54.501Z,9.60
2019-02-26T20:16:27.613Z,11.20
2019-02-26T20:18:56.781Z,11.20
2019-02-26T20:21:25.219Z,9.90
2019-02-26T20:23:55.066Z,9.80
2019-02-26T20:26:24.744Z,8.20
2019-02-26T20:28:53.964Z,9.60
2019-02-26T20:31:23.334Z,9.10
2019-02-26T20:33:53.283Z,9.80
2019-02-26T20:36:22.793Z,9.70
2019-02-26T20:38:52.507Z,10.70
2019-02-26T20:41:22.262Z,9.80
2019-02-26T20:43:51.774Z,11.00
2019-02-26T20:46:25.010Z,11.70
2019-02-26T20:48:50.935Z,14.20
2019-02-26T20:51:20.337Z,13.30
2019-02-26T20:53:50.135Z,13.90
2019-02-26T20:56:20.096Z,13.60
2019-02-26T20:58:49.556Z,12.50
2019-02-26T21:01:19.262Z,12.30
2019-02-26T21:03:49.365Z,12.30
2019-02-26T21:06:18.985Z,11.80
2019-02-26T21:08:48.989Z,13.00
2019-02-26T21:11:22.464Z,15.90
2019-02-26T21:13:49.789Z,15.90
2019-02-26T21:16:20.909Z,16.90
2019-02-26T21:18:49.282Z,16.70
2019-02-26T21:21:18.946Z,17.70
2019-02-26T21:23:49.198Z,17.80
2019-02-26T21:26:19.708Z,17.80
2019-02-26T21:28:49.481Z,18.10
2019-02-26T21:31:19.816Z,18.60
2019-02-26T21:33:50.475Z,19.50
2019-02-26T21:36:19.966Z,19.40
2019-02-26T21:38:49.435Z,20.30
2019-02-26T21:41:21.045Z,21.20
2019-02-26T21:43:49.066Z,19.50
2019-02-26T21:46:22.561Z,19.10
2019-02-26T21:48:48.388Z,20.70
2019-02-26T21:51:17.886Z,21.50
2019-02-26T21:53:49.211Z,22.50
2019-02-26T21:56:18.268Z,19.70
2019-02-26T21:58:47.647Z,20.60
2019-02-26T22:01:17.475Z,20.40
2019-02-26T22:03:48.708Z,20.60
2019-02-26T22:06:17.056Z,21.70
2019-02-26T22:08:46.683Z,22.80
2019-02-26T22:11:18.486Z,21.20
2019-02-26T22:13:46.535Z,21.60
2019-02-26T22:16:17.682Z,22.00
2019-02-26T22:18:46.289Z,23.00
2019-02-26T22:21:18.647Z,21.90
2019-02-26T22:23:45.601Z,21.80
2019-02-26T22:26:16.820Z,22.50
2019-02-26T22:28:46.579Z,21.60
2019-02-26T22:31:16.246Z,21.00
2019-02-26T22:33:46.443Z,21.60
2019-02-26T22:36:15.355Z,21.20
2019-02-26T22:38:46.142Z,21.30
2019-02-26T22:41:15.266Z,23.10
2019-02-26T22:43:44.806Z,21.90
2019-02-26T22:46:14.731Z,21.90
2019-02-26T22:48:46.917Z,22.70
2019-02-26T22:51:15.283Z,23.00
2019-02-26T22:53:45.620Z,22.00
2019-02-26T22:56:15.413Z,22.00
2019-02-26T22:58:44.961Z,24.10
2019-02-26T23:01:16.163Z,22.90
2019-02-26T23:03:46.644Z,24.20
2019-02-26T23:06:15.954Z,24.20
2019-02-26T23:08:45.524Z,22.30
2019-02-26T23:11:15.962Z,22.10
2019-02-26T23:13:45.867Z,22.10
2019-02-26T23:16:18.002Z,22.20
2019-02-26T23:18:46.689Z,23.70
2019-02-26T23:21:16.442Z,23.50
2019-02-26T23:23:46.287Z,24.00
2019-02-26T23:26:16.499Z,23.60
2019-02-26T23:28:46.285Z,22.90
2019-02-26T23:31:16.365Z,23.90
2019-02-26T23:33:48.556Z,24.00
2019-02-26T23:36:16.195Z,23.40
2019-02-26T23:38:45.541Z,21.90
2019-02-26T23:41:15.117Z,22.50
2019-02-26T23:43:45.392Z,23.10
2019-02-26T23:46:14.405Z,22.40
2019-02-26T23:48:44.043Z,23.50
2019-02-26T23:51:13.772Z,23.60
2019-02-26T23:53:43.874Z,23.70
2019-02-26T23:56:13.368Z,23.70
2019-02-26T23:58:42.569Z,22.70
